sensor_id;sensor_type;location;lat;lon;timestamp;P1;durP1;ratioP1;P2;durP2;ratioP2
61104;SDS011;46987;32.638;-115.438;2023-07-28T00:00:23;27.05;;;5.95;;
61104;SDS011;46987;32.638;-115.438;2023-07-28T00:02:49;11.30;;;3.38;;
61104;SDS011;46987;32.638;-115.438;2023-07-28T00:05:16;17.42;;;4.43;;
61104;SDS011;46987;32.638;-115.438;2023-07-28T00:07:44;11.70;;;3.17;;
61104;SDS011;46987;32.638;-115.438;2023-07-28T00:10:11;8.60;;;2.53;;
61104;SDS011;46987;32.638;-115.438;2023-07-28T00:12:38;11.25;;;2.53;;
61104;SDS011;46987;32.638;-115.438;2023-07-28T00:15:05;9.60;;;2.95;;
61104;SDS011;46987;32.638;-115.438;2023-07-28T00:17:32;8.23;;;2.28;;
61104;SDS011;46987;32.638;-115.438;2023-07-28T00:19:58;6.85;;;2.17;;
61104;SDS011;46987;32.638;-115.438;2023-07-28T00:22:25;10.82;;;2.25;;
61104;SDS011;46987;32.638;-115.438;2023-07-28T00:24:53;7.65;;;2.22;;
61104;SDS011;46987;32.638;-115.438;2023-07-28T00:27:20;6.43;;;1.90;;
61104;SDS011;46987;32.638;-115.438;2023-07-28T00:29:47;9.52;;;2.38;;
61104;SDS011;46987;32.638;-115.438;2023-07-28T00:32:13;9.07;;;2.58;;
61104;SDS011;46987;32.638;-115.438;2023-07-28T00:34:40;12.07;;;2.70;;
61104;SDS011;46987;32.638;-115.438;2023-07-28T00:37:07;10.20;;;2.83;;
61104;SDS011;46987;32.638;-115.438;2023-07-28T00:39:34;14.05;;;2.65;;
61104;SDS011;46987;32.638;-115.438;2023-07-28T00:42:03;8.48;;;2.72;;
61104;SDS011;46987;32.638;-115.438;2023-07-28T00:44:30;7.47;;;2.15;;
61104;SDS011;46987;32.638;-115.438;2023-07-28T00:46:56;11.23;;;2.45;;
61104;SDS011;46987;32.638;-115.438;2023-07-28T00:49:23;10.10;;;2.40;;
61104;SDS011;46987;32.638;-115.438;2023-07-28T00:51:50;10.10;;;2.40;;
61104;SDS011;46987;32.638;-115.438;2023-07-28T00:54:18;9.07;;;2.50;;
61104;SDS011;46987;32.638;-115.438;2023-07-28T00:56:45;7.95;;;2.30;;
61104;SDS011;46987;32.638;-115.438;2023-07-28T00:59:14;8.55;;;2.55;;
61104;SDS011;46987;32.638;-115.438;2023-07-28T01:01:40;10.43;;;2.38;;
61104;SDS011;46987;32.638;-115.438;2023-07-28T01:04:08;12.52;;;2.70;;
61104;SDS011;46987;32.638;-115.438;2023-07-28T01:06:35;10.18;;;2.55;;
61104;SDS011;46987;32.638;-115.438;2023-07-28T01:09:03;11.90;;;2.85;;
61104;SDS011;46987;32.638;-115.438;2023-07-28T01:11:31;14.32;;;3.03;;
61104;SDS011;46987;32.638;-115.438;2023-07-28T01:13:58;10.55;;;3.08;;
61104;SDS011;46987;32.638;-115.438;2023-07-28T01:16:28;14.95;;;3.35;;
61104;SDS011;46987;32.638;-115.438;2023-07-28T01:18:55;11.00;;;2.50;;
61104;SDS011;46987;32.638;-115.438;2023-07-28T01:21:22;14.23;;;3.60;;
61104;SDS011;46987;32.638;-115.438;2023-07-28T01:23:52;9.23;;;2.88;;
61104;SDS011;46987;32.638;-115.438;2023-07-28T01:26:30;8.88;;;2.85;;
61104;SDS011;46987;32.638;-115.438;2023-07-28T01:28:57;13.02;;;2.60;;
61104;SDS011;46987;32.638;-115.438;2023-07-28T01:31:25;12.52;;;2.70;;
61104;SDS011;46987;32.638;-115.438;2023-07-28T01:33:52;12.18;;;2.83;;
61104;SDS011;46987;32.638;-115.438;2023-07-28T01:36:18;12.90;;;3.08;;
61104;SDS011;46987;32.638;-115.438;2023-07-28T01:38:45;17.95;;;3.95;;
61104;SDS011;46987;32.638;-115.438;2023-07-28T01:41:12;14.00;;;2.75;;
61104;SDS011;46987;32.638;-115.438;2023-07-28T01:43:40;14.77;;;2.95;;
61104;SDS011;46987;32.638;-115.438;2023-07-28T01:46:08;12.20;;;2.95;;
61104;SDS011;46987;32.638;-115.438;2023-07-28T01:48:35;12.50;;;3.10;;
61104;SDS011;46987;32.638;-115.438;2023-07-28T01:51:01;10.60;;;2.75;;
61104;SDS011;46987;32.638;-115.438;2023-07-28T01:53:28;14.55;;;2.70;;
61104;SDS011;46987;32.638;-115.438;2023-07-28T01:55:55;11.45;;;2.70;;
61104;SDS011;46987;32.638;-115.438;2023-07-28T01:58:22;12.13;;;2.65;;
61104;SDS011;46987;32.638;-115.438;2023-07-28T02:00:50;8.95;;;2.75;;
61104;SDS011;46987;32.638;-115.438;2023-07-28T02:03:16;12.07;;;3.03;;
61104;SDS011;46987;32.638;-115.438;2023-07-28T02:05:43;9.32;;;3.15;;
61104;SDS011;46987;32.638;-115.438;2023-07-28T02:08:11;12.73;;;3.42;;
61104;SDS011;46987;32.638;-115.438;2023-07-28T02:10:37;12.57;;;3.00;;
61104;SDS011;46987;32.638;-115.438;2023-07-28T02:13:04;16.00;;;4.68;;
61104;SDS011;46987;32.638;-115.438;2023-07-28T02:15:31;13.30;;;2.95;;
61104;SDS011;46987;32.638;-115.438;2023-07-28T02:17:59;11.80;;;3.03;;
61104;SDS011;46987;32.638;-115.438;2023-07-28T02:20:26;12.15;;;3.40;;
61104;SDS011;46987;32.638;-115.438;2023-07-28T02:22:53;14.77;;;3.70;;
61104;SDS011;46987;32.638;-115.438;2023-07-28T02:25:20;16.20;;;3.80;;
61104;SDS011;46987;32.638;-115.438;2023-07-28T02:27:46;22.88;;;5.88;;
61104;SDS011;46987;32.638;-115.438;2023-07-28T02:30:13;20.88;;;4.35;;
61104;SDS011;46987;32.638;-115.438;2023-07-28T02:32:40;17.13;;;4.82;;
61104;SDS011;46987;32.638;-115.438;2023-07-28T02:35:09;18.60;;;4.50;;
61104;SDS011;46987;32.638;-115.438;2023-07-28T02:37:36;24.77;;;5.80;;
61104;SDS011;46987;32.638;-115.438;2023-07-28T02:40:03;12.23;;;4.05;;
61104;SDS011;46987;32.638;-115.438;2023-07-28T02:42:31;14.00;;;3.78;;
61104;SDS011;46987;32.638;-115.438;2023-07-28T02:44:59;9.35;;;2.83;;
61104;SDS011;46987;32.638;-115.438;2023-07-28T02:47:26;12.40;;;3.72;;
61104;SDS011;46987;32.638;-115.438;2023-07-28T02:49:53;13.93;;;3.60;;
61104;SDS011;46987;32.638;-115.438;2023-07-28T02:52:21;11.02;;;3.83;;
61104;SDS011;46987;32.638;-115.438;2023-07-28T02:54:48;12.07;;;3.72;;
61104;SDS011;46987;32.638;-115.438;2023-07-28T02:57:16;15.55;;;3.92;;
61104;SDS011;46987;32.638;-115.438;2023-07-28T02:59:47;12.27;;;3.63;;
61104;SDS011;46987;32.638;-115.438;2023-07-28T03:02:13;15.18;;;4.15;;
61104;SDS011;46987;32.638;-115.438;2023-07-28T03:04:41;15.05;;;3.83;;
61104;SDS011;46987;32.638;-115.438;2023-07-28T03:07:17;17.83;;;4.20;;
61104;SDS011;46987;32.638;-115.438;2023-07-28T03:09:49;18.23;;;4.38;;
61104;SDS011;46987;32.638;-115.438;2023-07-28T03:12:16;18.55;;;4.40;;
61104;SDS011;46987;32.638;-115.438;2023-07-28T03:14:43;18.67;;;4.60;;
61104;SDS011;46987;32.638;-115.438;2023-07-28T03:17:09;13.43;;;3.88;;
61104;SDS011;46987;32.638;-115.438;2023-07-28T03:19:36;12.65;;;3.67;;
61104;SDS011;46987;32.638;-115.438;2023-07-28T03:22:03;17.92;;;4.90;;
61104;SDS011;46987;32.638;-115.438;2023-07-28T03:24:30;13.85;;;5.10;;
61104;SDS011;46987;32.638;-115.438;2023-07-28T03:26:59;13.75;;;4.82;;
61104;SDS011;46987;32.638;-115.438;2023-07-28T03:29:26;11.07;;;4.95;;
61104;SDS011;46987;32.638;-115.438;2023-07-28T03:31:53;15.77;;;6.18;;
61104;SDS011;46987;32.638;-115.438;2023-07-28T03:34:19;14.45;;;5.80;;
61104;SDS011;46987;32.638;-115.438;2023-07-28T03:36:46;15.23;;;5.60;;
61104;SDS011;46987;32.638;-115.438;2023-07-28T03:39:14;13.95;;;4.80;;
61104;SDS011;46987;32.638;-115.438;2023-07-28T03:41:44;12.77;;;4.90;;
61104;SDS011;46987;32.638;-115.438;2023-07-28T03:44:12;16.02;;;4.70;;
61104;SDS011;46987;32.638;-115.438;2023-07-28T03:46:39;13.18;;;4.70;;
61104;SDS011;46987;32.638;-115.438;2023-07-28T03:49:05;18.08;;;5.97;;
61104;SDS011;46987;32.638;-115.438;2023-07-28T03:51:32;13.75;;;4.93;;
61104;SDS011;46987;32.638;-115.438;2023-07-28T03:53:59;20.13;;;4.97;;
61104;SDS011;46987;32.638;-115.438;2023-07-28T03:56:26;14.35;;;4.25;;
61104;SDS011;46987;32.638;-115.438;2023-07-28T03:58:55;14.85;;;3.75;;
61104;SDS011;46987;32.638;-115.438;2023-07-28T04:01:24;16.38;;;3.72;;
61104;SDS011;46987;32.638;-115.438;2023-07-28T04:03:51;14.70;;;4.03;;
61104;SDS011;46987;32.638;-115.438;2023-07-28T04:06:18;16.75;;;4.30;;
61104;SDS011;46987;32.638;-115.438;2023-07-28T04:08:45;13.82;;;5.00;;
61104;SDS011;46987;32.638;-115.438;2023-07-28T04:11:11;16.75;;;4.82;;
61104;SDS011;46987;32.638;-115.438;2023-07-28T04:13:38;14.90;;;5.35;;
61104;SDS011;46987;32.638;-115.438;2023-07-28T04:16:05;14.15;;;5.35;;
61104;SDS011;46987;32.638;-115.438;2023-07-28T04:18:33;17.75;;;5.22;;
61104;SDS011;46987;32.638;-115.438;2023-07-28T04:21:00;19.67;;;5.10;;
61104;SDS011;46987;32.638;-115.438;2023-07-28T04:23:27;16.02;;;4.60;;
61104;SDS011;46987;32.638;-115.438;2023-07-28T04:25:53;17.90;;;4.47;;
61104;SDS011;46987;32.638;-115.438;2023-07-28T04:28:21;11.50;;;3.38;;
61104;SDS011;46987;32.638;-115.438;2023-07-28T04:30:51;14.98;;;3.78;;
61104;SDS011;46987;32.638;-115.438;2023-07-28T04:33:39;13.25;;;3.42;;
61104;SDS011;46987;32.638;-115.438;2023-07-28T04:36:07;10.15;;;3.60;;
61104;SDS011;46987;32.638;-115.438;2023-07-28T04:38:34;14.15;;;3.45;;
61104;SDS011;46987;32.638;-115.438;2023-07-28T04:41:01;11.55;;;3.03;;
61104;SDS011;46987;32.638;-115.438;2023-07-28T04:43:46;12.77;;;3.10;;
61104;SDS011;46987;32.638;-115.438;2023-07-28T04:46:13;15.80;;;3.10;;
61104;SDS011;46987;32.638;-115.438;2023-07-28T04:48:43;15.02;;;3.30;;
61104;SDS011;46987;32.638;-115.438;2023-07-28T04:51:33;15.33;;;3.70;;
61104;SDS011;46987;32.638;-115.438;2023-07-28T04:54:20;13.93;;;3.10;;
61104;SDS011;46987;32.638;-115.438;2023-07-28T04:56:47;8.70;;;3.00;;
61104;SDS011;46987;32.638;-115.438;2023-07-28T04:59:16;12.07;;;3.08;;
61104;SDS011;46987;32.638;-115.438;2023-07-28T05:01:43;10.15;;;3.20;;
61104;SDS011;46987;32.638;-115.438;2023-07-28T05:04:11;11.15;;;3.13;;
61104;SDS011;46987;32.638;-115.438;2023-07-28T05:06:38;12.68;;;3.25;;
61104;SDS011;46987;32.638;-115.438;2023-07-28T05:09:05;10.13;;;3.03;;
61104;SDS011;46987;32.638;-115.438;2023-07-28T05:11:35;10.45;;;3.30;;
61104;SDS011;46987;32.638;-115.438;2023-07-28T05:14:02;10.10;;;3.35;;
61104;SDS011;46987;32.638;-115.438;2023-07-28T05:16:30;13.65;;;3.63;;
61104;SDS011;46987;32.638;-115.438;2023-07-28T05:19:03;11.13;;;3.40;;
61104;SDS011;46987;32.638;-115.438;2023-07-28T05:21:50;11.35;;;3.08;;
61104;SDS011;46987;32.638;-115.438;2023-07-28T05:24:20;16.87;;;3.90;;
61104;SDS011;46987;32.638;-115.438;2023-07-28T05:26:46;13.60;;;3.78;;
61104;SDS011;46987;32.638;-115.438;2023-07-28T05:29:14;10.77;;;3.60;;
61104;SDS011;46987;32.638;-115.438;2023-07-28T05:31:41;13.05;;;4.53;;
61104;SDS011;46987;32.638;-115.438;2023-07-28T05:34:28;13.70;;;4.68;;
61104;SDS011;46987;32.638;-115.438;2023-07-28T05:36:57;10.55;;;4.07;;
61104;SDS011;46987;32.638;-115.438;2023-07-28T05:39:27;10.35;;;3.63;;
61104;SDS011;46987;32.638;-115.438;2023-07-28T05:41:58;16.65;;;3.22;;
61104;SDS011;46987;32.638;-115.438;2023-07-28T05:44:25;13.63;;;3.22;;
61104;SDS011;46987;32.638;-115.438;2023-07-28T05:46:51;15.32;;;3.47;;
61104;SDS011;46987;32.638;-115.438;2023-07-28T05:49:18;10.43;;;3.60;;
61104;SDS011;46987;32.638;-115.438;2023-07-28T05:51:45;15.50;;;4.18;;
61104;SDS011;46987;32.638;-115.438;2023-07-28T05:54:15;13.23;;;3.65;;
61104;SDS011;46987;32.638;-115.438;2023-07-28T05:56:42;17.25;;;3.38;;
61104;SDS011;46987;32.638;-115.438;2023-07-28T05:59:09;12.75;;;2.88;;
61104;SDS011;46987;32.638;-115.438;2023-07-28T06:01:36;10.82;;;3.58;;
61104;SDS011;46987;32.638;-115.438;2023-07-28T06:04:22;12.65;;;3.30;;
61104;SDS011;46987;32.638;-115.438;2023-07-28T06:06:53;10.68;;;3.55;;
61104;SDS011;46987;32.638;-115.438;2023-07-28T06:09:22;12.60;;;3.70;;
61104;SDS011;46987;32.638;-115.438;2023-07-28T06:11:49;13.05;;;3.17;;
61104;SDS011;46987;32.638;-115.438;2023-07-28T06:14:16;11.43;;;3.55;;
61104;SDS011;46987;32.638;-115.438;2023-07-28T06:16:43;12.55;;;4.15;;
61104;SDS011;46987;32.638;-115.438;2023-07-28T06:19:09;13.75;;;3.50;;
61104;SDS011;46987;32.638;-115.438;2023-07-28T06:21:38;9.93;;;3.40;;
61104;SDS011;46987;32.638;-115.438;2023-07-28T06:24:05;11.20;;;3.00;;
61104;SDS011;46987;32.638;-115.438;2023-07-28T06:26:34;10.18;;;3.20;;
61104;SDS011;46987;32.638;-115.438;2023-07-28T06:29:01;8.88;;;3.22;;
61104;SDS011;46987;32.638;-115.438;2023-07-28T06:31:27;9.57;;;3.20;;
61104;SDS011;46987;32.638;-115.438;2023-07-28T06:33:55;9.70;;;3.45;;
61104;SDS011;46987;32.638;-115.438;2023-07-28T06:36:22;12.23;;;3.10;;
61104;SDS011;46987;32.638;-115.438;2023-07-28T06:38:49;12.88;;;3.63;;
61104;SDS011;46987;32.638;-115.438;2023-07-28T06:41:17;10.93;;;3.22;;
61104;SDS011;46987;32.638;-115.438;2023-07-28T06:43:47;9.45;;;2.95;;
61104;SDS011;46987;32.638;-115.438;2023-07-28T06:46:16;8.20;;;3.40;;
61104;SDS011;46987;32.638;-115.438;2023-07-28T06:48:43;7.82;;;2.83;;
61104;SDS011;46987;32.638;-115.438;2023-07-28T06:51:10;12.45;;;3.13;;
61104;SDS011;46987;32.638;-115.438;2023-07-28T06:53:36;10.75;;;2.58;;
61104;SDS011;46987;32.638;-115.438;2023-07-28T06:56:06;7.30;;;2.45;;
61104;SDS011;46987;32.638;-115.438;2023-07-28T06:58:33;8.85;;;2.63;;
61104;SDS011;46987;32.638;-115.438;2023-07-28T07:01:02;10.18;;;3.15;;
61104;SDS011;46987;32.638;-115.438;2023-07-28T07:03:29;8.90;;;2.55;;
61104;SDS011;46987;32.638;-115.438;2023-07-28T07:05:55;10.25;;;2.85;;
61104;SDS011;46987;32.638;-115.438;2023-07-28T07:08:23;11.95;;;3.42;;
61104;SDS011;46987;32.638;-115.438;2023-07-28T07:10:49;10.88;;;3.10;;
61104;SDS011;46987;32.638;-115.438;2023-07-28T07:13:17;6.80;;;3.08;;
61104;SDS011;46987;32.638;-115.438;2023-07-28T07:15:44;9.30;;;3.10;;
61104;SDS011;46987;32.638;-115.438;2023-07-28T07:18:13;12.35;;;3.30;;
61104;SDS011;46987;32.638;-115.438;2023-07-28T07:20:39;7.85;;;2.80;;
61104;SDS011;46987;32.638;-115.438;2023-07-28T07:23:06;7.13;;;2.70;;
61104;SDS011;46987;32.638;-115.438;2023-07-28T07:25:33;10.00;;;3.58;;
61104;SDS011;46987;32.638;-115.438;2023-07-28T07:28:03;6.90;;;2.90;;
61104;SDS011;46987;32.638;-115.438;2023-07-28T07:30:32;11.45;;;3.00;;
61104;SDS011;46987;32.638;-115.438;2023-07-28T07:32:59;8.07;;;3.35;;
61104;SDS011;46987;32.638;-115.438;2023-07-28T07:35:28;12.13;;;3.72;;
61104;SDS011;46987;32.638;-115.438;2023-07-28T07:37:54;11.95;;;3.58;;
61104;SDS011;46987;32.638;-115.438;2023-07-28T07:40:21;7.93;;;2.90;;
61104;SDS011;46987;32.638;-115.438;2023-07-28T07:42:49;10.30;;;3.17;;
61104;SDS011;46987;32.638;-115.438;2023-07-28T07:45:16;11.02;;;3.35;;
61104;SDS011;46987;32.638;-115.438;2023-07-28T07:47:43;8.13;;;3.10;;
61104;SDS011;46987;32.638;-115.438;2023-07-28T07:50:10;10.95;;;2.85;;
61104;SDS011;46987;32.638;-115.438;2023-07-28T07:52:38;11.05;;;3.75;;
61104;SDS011;46987;32.638;-115.438;2023-07-28T07:55:05;11.02;;;3.20;;
61104;SDS011;46987;32.638;-115.438;2023-07-28T07:57:32;10.02;;;3.28;;
61104;SDS011;46987;32.638;-115.438;2023-07-28T07:59:59;8.20;;;2.72;;
61104;SDS011;46987;32.638;-115.438;2023-07-28T08:02:26;10.25;;;3.53;;
61104;SDS011;46987;32.638;-115.438;2023-07-28T08:04:52;9.98;;;3.55;;
61104;SDS011;46987;32.638;-115.438;2023-07-28T08:07:20;9.88;;;3.08;;
61104;SDS011;46987;32.638;-115.438;2023-07-28T08:09:48;10.02;;;3.30;;
61104;SDS011;46987;32.638;-115.438;2023-07-28T08:12:15;10.90;;;3.95;;
61104;SDS011;46987;32.638;-115.438;2023-07-28T08:14:42;11.07;;;3.28;;
61104;SDS011;46987;32.638;-115.438;2023-07-28T08:17:08;11.10;;;3.13;;
61104;SDS011;46987;32.638;-115.438;2023-07-28T08:19:35;10.35;;;3.45;;
61104;SDS011;46987;32.638;-115.438;2023-07-28T08:22:02;10.63;;;3.40;;
61104;SDS011;46987;32.638;-115.438;2023-07-28T08:24:31;9.13;;;3.20;;
61104;SDS011;46987;32.638;-115.438;2023-07-28T08:27:00;10.07;;;3.25;;
61104;SDS011;46987;32.638;-115.438;2023-07-28T08:29:30;18.40;;;3.75;;
61104;SDS011;46987;32.638;-115.438;2023-07-28T08:31:57;8.63;;;3.00;;
61104;SDS011;46987;32.638;-115.438;2023-07-28T08:34:24;10.88;;;3.38;;
61104;SDS011;46987;32.638;-115.438;2023-07-28T08:36:50;9.60;;;3.30;;
61104;SDS011;46987;32.638;-115.438;2023-07-28T08:39:17;9.05;;;3.60;;
61104;SDS011;46987;32.638;-115.438;2023-07-28T08:41:44;14.10;;;3.90;;
61104;SDS011;46987;32.638;-115.438;2023-07-28T08:44:12;10.93;;;3.33;;
61104;SDS011;46987;32.638;-115.438;2023-07-28T08:46:40;12.80;;;4.43;;
61104;SDS011;46987;32.638;-115.438;2023-07-28T08:49:06;11.30;;;4.15;;
61104;SDS011;46987;32.638;-115.438;2023-07-28T08:51:33;10.43;;;3.92;;
61104;SDS011;46987;32.638;-115.438;2023-07-28T08:54:00;12.25;;;4.15;;
61104;SDS011;46987;32.638;-115.438;2023-07-28T08:56:27;9.05;;;3.58;;
61104;SDS011;46987;32.638;-115.438;2023-07-28T08:58:57;13.35;;;4.25;;
61104;SDS011;46987;32.638;-115.438;2023-07-28T09:01:27;9.27;;;3.63;;
61104;SDS011;46987;32.638;-115.438;2023-07-28T09:03:53;12.55;;;3.85;;
61104;SDS011;46987;32.638;-115.438;2023-07-28T09:08:49;11.90;;;3.63;;
61104;SDS011;46987;32.638;-115.438;2023-07-28T09:11:16;12.82;;;3.97;;
61104;SDS011;46987;32.638;-115.438;2023-07-28T09:13:44;10.52;;;3.35;;
61104;SDS011;46987;32.638;-115.438;2023-07-28T09:16:20;10.30;;;3.33;;
61104;SDS011;46987;32.638;-115.438;2023-07-28T09:18:49;11.07;;;3.90;;
61104;SDS011;46987;32.638;-115.438;2023-07-28T09:21:16;11.27;;;3.78;;
61104;SDS011;46987;32.638;-115.438;2023-07-28T09:23:44;14.20;;;4.20;;
61104;SDS011;46987;32.638;-115.438;2023-07-28T09:26:11;8.80;;;3.25;;
61104;SDS011;46987;32.638;-115.438;2023-07-28T09:28:38;11.35;;;3.70;;
61104;SDS011;46987;32.638;-115.438;2023-07-28T09:31:05;9.60;;;3.58;;
61104;SDS011;46987;32.638;-115.438;2023-07-28T09:33:32;11.10;;;4.00;;
61104;SDS011;46987;32.638;-115.438;2023-07-28T09:36:08;13.30;;;4.32;;
61104;SDS011;46987;32.638;-115.438;2023-07-28T09:38:36;9.95;;;4.20;;
61104;SDS011;46987;32.638;-115.438;2023-07-28T09:41:03;12.38;;;4.82;;
61104;SDS011;46987;32.638;-115.438;2023-07-28T09:43:34;11.75;;;5.00;;
61104;SDS011;46987;32.638;-115.438;2023-07-28T09:46:01;16.63;;;5.82;;
61104;SDS011;46987;32.638;-115.438;2023-07-28T09:48:29;14.10;;;6.07;;
61104;SDS011;46987;32.638;-115.438;2023-07-28T09:50:56;12.00;;;4.65;;
61104;SDS011;46987;32.638;-115.438;2023-07-28T09:53:26;16.45;;;4.68;;
61104;SDS011;46987;32.638;-115.438;2023-07-28T09:55:55;14.75;;;7.20;;
61104;SDS011;46987;32.638;-115.438;2023-07-28T09:58:21;12.60;;;6.15;;
61104;SDS011;46987;32.638;-115.438;2023-07-28T10:00:49;17.13;;;6.15;;
61104;SDS011;46987;32.638;-115.438;2023-07-28T10:03:17;13.88;;;5.80;;
61104;SDS011;46987;32.638;-115.438;2023-07-28T10:05:44;11.85;;;4.82;;
61104;SDS011;46987;32.638;-115.438;2023-07-28T10:08:11;14.82;;;4.90;;
61104;SDS011;46987;32.638;-115.438;2023-07-28T10:10:41;15.27;;;4.80;;
61104;SDS011;46987;32.638;-115.438;2023-07-28T10:13:18;12.18;;;4.75;;
61104;SDS011;46987;32.638;-115.438;2023-07-28T10:15:45;11.02;;;4.72;;
61104;SDS011;46987;32.638;-115.438;2023-07-28T10:18:13;11.57;;;4.43;;
61104;SDS011;46987;32.638;-115.438;2023-07-28T10:20:42;7.82;;;4.22;;
61104;SDS011;46987;32.638;-115.438;2023-07-28T10:23:11;11.38;;;4.53;;
61104;SDS011;46987;32.638;-115.438;2023-07-28T10:25:39;13.93;;;4.22;;
61104;SDS011;46987;32.638;-115.438;2023-07-28T10:28:24;10.75;;;4.60;;
61104;SDS011;46987;32.638;-115.438;2023-07-28T10:30:53;11.00;;;4.07;;
61104;SDS011;46987;32.638;-115.438;2023-07-28T10:33:26;14.45;;;4.68;;
61104;SDS011;46987;32.638;-115.438;2023-07-28T10:35:54;13.35;;;5.00;;
61104;SDS011;46987;32.638;-115.438;2023-07-28T10:38:30;10.55;;;4.68;;
61104;SDS011;46987;32.638;-115.438;2023-07-28T10:41:08;13.70;;;4.15;;
61104;SDS011;46987;32.638;-115.438;2023-07-28T10:43:37;12.68;;;4.95;;
61104;SDS011;46987;32.638;-115.438;2023-07-28T10:46:04;11.45;;;4.70;;
61104;SDS011;46987;32.638;-115.438;2023-07-28T10:48:32;10.98;;;4.47;;
61104;SDS011;46987;32.638;-115.438;2023-07-28T10:51:00;18.80;;;5.88;;
61104;SDS011;46987;32.638;-115.438;2023-07-28T10:53:27;14.45;;;5.80;;
61104;SDS011;46987;32.638;-115.438;2023-07-28T10:55:53;15.18;;;6.85;;
61104;SDS011;46987;32.638;-115.438;2023-07-28T10:58:20;18.90;;;8.25;;
61104;SDS011;46987;32.638;-115.438;2023-07-28T11:00:49;19.23;;;9.48;;
61104;SDS011;46987;32.638;-115.438;2023-07-28T11:03:17;19.55;;;9.68;;
61104;SDS011;46987;32.638;-115.438;2023-07-28T11:05:43;25.65;;;10.23;;
61104;SDS011;46987;32.638;-115.438;2023-07-28T11:08:10;18.98;;;8.57;;
61104;SDS011;46987;32.638;-115.438;2023-07-28T11:10:37;19.17;;;8.63;;
61104;SDS011;46987;32.638;-115.438;2023-07-28T11:13:05;19.42;;;8.23;;
61104;SDS011;46987;32.638;-115.438;2023-07-28T11:15:32;16.58;;;6.30;;
61104;SDS011;46987;32.638;-115.438;2023-07-28T11:18:02;15.48;;;5.88;;
61104;SDS011;46987;32.638;-115.438;2023-07-28T11:20:30;17.88;;;5.40;;
61104;SDS011;46987;32.638;-115.438;2023-07-28T11:22:57;15.55;;;5.22;;
61104;SDS011;46987;32.638;-115.438;2023-07-28T11:25:24;13.60;;;5.15;;
61104;SDS011;46987;32.638;-115.438;2023-07-28T11:27:51;16.27;;;6.57;;
61104;SDS011;46987;32.638;-115.438;2023-07-28T11:30:19;19.38;;;6.45;;
61104;SDS011;46987;32.638;-115.438;2023-07-28T11:32:46;15.40;;;6.18;;
61104;SDS011;46987;32.638;-115.438;2023-07-28T11:35:15;14.57;;;5.43;;
61104;SDS011;46987;32.638;-115.438;2023-07-28T11:37:43;15.65;;;6.10;;
61104;SDS011;46987;32.638;-115.438;2023-07-28T11:40:10;17.88;;;6.50;;
61104;SDS011;46987;32.638;-115.438;2023-07-28T11:42:38;14.00;;;6.50;;
61104;SDS011;46987;32.638;-115.438;2023-07-28T11:45:05;14.10;;;6.25;;
61104;SDS011;46987;32.638;-115.438;2023-07-28T11:47:32;14.43;;;6.63;;
61104;SDS011;46987;32.638;-115.438;2023-07-28T11:49:59;14.45;;;5.82;;
61104;SDS011;46987;32.638;-115.438;2023-07-28T11:52:31;16.45;;;6.45;;
61104;SDS011;46987;32.638;-115.438;2023-07-28T11:54:58;17.52;;;6.30;;
61104;SDS011;46987;32.638;-115.438;2023-07-28T11:57:25;13.75;;;5.60;;
61104;SDS011;46987;32.638;-115.438;2023-07-28T11:59:52;15.00;;;5.65;;
61104;SDS011;46987;32.638;-115.438;2023-07-28T12:02:24;14.88;;;5.95;;
61104;SDS011;46987;32.638;-115.438;2023-07-28T12:07:19;16.13;;;6.00;;
61104;SDS011;46987;32.638;-115.438;2023-07-28T12:09:51;17.95;;;6.40;;
61104;SDS011;46987;32.638;-115.438;2023-07-28T12:12:18;13.60;;;5.77;;
61104;SDS011;46987;32.638;-115.438;2023-07-28T12:14:45;13.23;;;5.18;;
61104;SDS011;46987;32.638;-115.438;2023-07-28T12:17:13;11.07;;;4.57;;
61104;SDS011;46987;32.638;-115.438;2023-07-28T12:19:43;11.45;;;5.07;;
61104;SDS011;46987;32.638;-115.438;2023-07-28T12:22:21;12.80;;;4.80;;
61104;SDS011;46987;32.638;-115.438;2023-07-28T12:24:47;14.13;;;5.28;;
61104;SDS011;46987;32.638;-115.438;2023-07-28T12:27:16;11.48;;;4.80;;
61104;SDS011;46987;32.638;-115.438;2023-07-28T12:29:43;13.13;;;5.25;;
61104;SDS011;46987;32.638;-115.438;2023-07-28T12:32:10;12.68;;;4.72;;
61104;SDS011;46987;32.638;-115.438;2023-07-28T12:34:37;12.32;;;4.20;;
61104;SDS011;46987;32.638;-115.438;2023-07-28T12:37:04;12.05;;;4.25;;
61104;SDS011;46987;32.638;-115.438;2023-07-28T12:39:30;11.40;;;3.85;;
61104;SDS011;46987;32.638;-115.438;2023-07-28T12:41:57;13.55;;;4.90;;
61104;SDS011;46987;32.638;-115.438;2023-07-28T12:44:26;12.95;;;4.28;;
61104;SDS011;46987;32.638;-115.438;2023-07-28T12:46:53;14.77;;;4.72;;
61104;SDS011;46987;32.638;-115.438;2023-07-28T12:49:20;13.77;;;4.53;;
61104;SDS011;46987;32.638;-115.438;2023-07-28T12:51:46;18.05;;;5.63;;
61104;SDS011;46987;32.638;-115.438;2023-07-28T12:54:13;17.52;;;5.75;;
61104;SDS011;46987;32.638;-115.438;2023-07-28T12:56:40;19.40;;;5.90;;
61104;SDS011;46987;32.638;-115.438;2023-07-28T12:59:07;17.90;;;4.72;;
61104;SDS011;46987;32.638;-115.438;2023-07-28T13:01:36;15.82;;;5.60;;
61104;SDS011;46987;32.638;-115.438;2023-07-28T13:04:02;16.23;;;6.20;;
61104;SDS011;46987;32.638;-115.438;2023-07-28T13:06:29;22.75;;;5.75;;
61104;SDS011;46987;32.638;-115.438;2023-07-28T13:08:56;16.65;;;4.80;;
61104;SDS011;46987;32.638;-115.438;2023-07-28T13:11:23;18.00;;;4.75;;
61104;SDS011;46987;32.638;-115.438;2023-07-28T13:13:49;19.27;;;5.60;;
61104;SDS011;46987;32.638;-115.438;2023-07-28T13:16:16;13.00;;;4.57;;
61104;SDS011;46987;32.638;-115.438;2023-07-28T13:18:44;17.27;;;5.53;;
61104;SDS011;46987;32.638;-115.438;2023-07-28T13:21:11;12.63;;;4.47;;
61104;SDS011;46987;32.638;-115.438;2023-07-28T13:23:38;14.68;;;4.97;;
61104;SDS011;46987;32.638;-115.438;2023-07-28T13:26:04;16.30;;;5.20;;
61104;SDS011;46987;32.638;-115.438;2023-07-28T13:28:31;15.13;;;4.70;;
61104;SDS011;46987;32.638;-115.438;2023-07-28T13:30:58;18.80;;;5.35;;
61104;SDS011;46987;32.638;-115.438;2023-07-28T13:33:26;17.73;;;5.32;;
61104;SDS011;46987;32.638;-115.438;2023-07-28T13:35:56;16.92;;;4.88;;
61104;SDS011;46987;32.638;-115.438;2023-07-28T13:38:23;12.70;;;4.50;;
61104;SDS011;46987;32.638;-115.438;2023-07-28T13:40:50;17.13;;;4.65;;
61104;SDS011;46987;32.638;-115.438;2023-07-28T13:43:17;12.48;;;3.97;;
61104;SDS011;46987;32.638;-115.438;2023-07-28T13:45:43;16.42;;;4.93;;
61104;SDS011;46987;32.638;-115.438;2023-07-28T13:48:10;15.75;;;4.85;;
61104;SDS011;46987;32.638;-115.438;2023-07-28T13:50:37;14.25;;;5.47;;
61104;SDS011;46987;32.638;-115.438;2023-07-28T13:53:05;16.60;;;5.10;;
61104;SDS011;46987;32.638;-115.438;2023-07-28T13:55:32;16.52;;;4.78;;
61104;SDS011;46987;32.638;-115.438;2023-07-28T13:57:59;15.07;;;5.07;;
61104;SDS011;46987;32.638;-115.438;2023-07-28T14:00:25;12.63;;;4.72;;
61104;SDS011;46987;32.638;-115.438;2023-07-28T14:02:52;18.95;;;5.90;;
61104;SDS011;46987;32.638;-115.438;2023-07-28T14:05:18;15.82;;;4.85;;
61104;SDS011;46987;32.638;-115.438;2023-07-28T14:07:47;16.67;;;5.10;;